Time;durP1;ratioP1;P1;durP2;ratioP2;P2;SDS_P1;SDS_P2;PMS_P1;PMS_P2;Temp;Humidity;BMP_temperature;BMP_pressure;BME280_temperature;BME280_humidity;BME280_pressure;Samples;Min_cycle;Max_cycle;Signal;HPM_P1;HPM_P2
2022/08/20 00:00:06;;;;;;;5.43;4.80;;;;;;;;;;4996664;28;20125;-84
2022/08/20 00:02:47;;;;;;;6.80;5.00;;;;;;;;;;5000581;28;20434;-82
2022/08/20 00:05:13;;;;;;;5.97;5.03;;;;;;;;;;4982805;28;20049;-85
2022/08/20 00:07:39;;;;;;;6.68;5.30;;;;;;;;;;4992463;28;20045;-86
2022/08/20 00:10:06;;;;;;;7.85;5.15;;;;;;;;;;4982490;28;20030;-84
2022/08/20 00:12:34;;;;;;;5.55;4.90;;;;;;;;;;5005527;28;20390;-83
2022/08/20 00:15:00;;;;;;;7.03;5.10;;;;;;;;;;4995501;28;20034;-85
2022/08/20 00:17:26;;;;;;;8.88;5.68;;;;;;;;;;4999383;28;20377;-83
2022/08/20 00:19:52;;;;;;;6.07;4.85;;;;;;;;;;5006171;28;20398;-84
2022/08/20 00:22:17;;;;;;;5.57;5.00;;;;;;;;;;4998991;28;20030;-84
2022/08/20 00:24:43;;;;;;;7.80;5.40;;;;;;;;;;4999236;28;20034;-84
2022/08/20 00:27:08;;;;;;;7.38;5.60;;;;;;;;;;4981923;28;20022;-84
2022/08/20 00:29:33;;;;;;;6.85;4.53;;;;;;;;;;4995218;28;20026;-86
2022/08/20 00:31:59;;;;;;;9.80;5.30;;;;;;;;;;4979072;28;20112;-85
2022/08/20 00:34:26;;;;;;;6.80;5.25;;;;;;;;;;4994782;28;20026;-85
2022/08/20 00:36:51;;;;;;;6.60;5.68;;;;;;;;;;4999460;28;20034;-83
2022/08/20 00:39:17;;;;;;;6.10;5.38;;;;;;;;;;4986804;28;20030;-83
2022/08/20 00:41:42;;;;;;;6.50;4.88;;;;;;;;;;4998613;28;20030;-83
2022/08/20 00:44:10;;;;;;;6.18;4.65;;;;;;;;;;4993950;28;20394;-82
2022/08/20 00:46:36;;;;;;;6.07;5.43;;;;;;;;;;5001814;28;20578;-85
2022/08/20 00:49:06;;;;;;;7.13;5.50;;;;;;;;;;4999698;28;20027;-84
2022/08/20 00:51:43;;;;;;;8.00;5.45;;;;;;;;;;4981640;28;20061;-82
2022/08/20 00:54:09;;;;;;;7.55;5.18;;;;;;;;;;5002430;28;20022;-84
2022/08/20 00:56:36;;;;;;;6.05;5.07;;;;;;;;;;5001261;28;20022;-85
2022/08/20 00:59:04;;;;;;;6.13;5.15;;;;;;;;;;4997514;28;20038;-82
2022/08/20 01:01:33;;;;;;;6.30;5.25;;;;;;;;;;4983641;28;20079;-85
2022/08/20 01:03:59;;;;;;;6.15;5.32;;;;;;;;;;5002187;28;20040;-84
2022/08/20 01:06:25;;;;;;;6.82;5.40;;;;;;;;;;4981321;28;20451;-84
2022/08/20 01:08:51;;;;;;;6.50;5.25;;;;;;;;;;4997228;28;20068;-85
2022/08/20 01:11:19;;;;;;;5.38;4.88;;;;;;;;;;4993349;28;20022;-85
2022/08/20 01:13:45;;;;;;;7.45;5.25;;;;;;;;;;4997462;28;20034;-88
2022/08/20 01:16:25;;;;;;;6.40;5.55;;;;;;;;;;5000896;28;20027;-84
2022/08/20 01:18:51;;;;;;;;;;;;;;;;;;4994752;28;20045;-83
2022/08/20 01:21:26;;;;;;;7.82;5.50;;;;;;;;;;4998729;28;19913;-85
2022/08/20 01:24:14;;;;;;;11.20;5.45;;;;;;;;;;5000853;28;20038;-83
2022/08/20 01:26:44;;;;;;;7.80;5.63;;;;;;;;;;5005863;28;20136;-84
2022/08/20 01:29:14;;;;;;;6.88;5.57;;;;;;;;;;5000184;28;20030;-84
2022/08/20 01:31:41;;;;;;;6.95;5.60;;;;;;;;;;5002310;28;20105;-84
2022/08/20 01:34:09;;;;;;;8.43;5.68;;;;;;;;;;5003037;28;20025;-84
2022/08/20 01:36:37;;;;;;;12.38;6.03;;;;;;;;;;5009499;28;20044;-84
2022/08/20 01:39:06;;;;;;;8.05;5.32;;;;;;;;;;4997887;28;20061;-84
2022/08/20 01:42:00;;;;;;;8.33;5.90;;;;;;;;;;4993740;28;20081;-82
2022/08/20 01:44:25;;;;;;;7.20;4.93;;;;;;;;;;4993502;28;20034;-82
2022/08/20 01:46:54;;;;;;;9.13;5.95;;;;;;;;;;5000931;28;20410;-82
2022/08/20 01:49:34;;;;;;;7.43;5.63;;;;;;;;;;4995028;28;20364;-83
2022/08/20 01:52:04;;;;;;;7.18;5.28;;;;;;;;;;5002231;28;20076;-81
2022/08/20 01:54:31;;;;;;;6.50;5.78;;;;;;;;;;4994112;28;20034;-83
2022/08/20 01:57:10;;;;;;;7.28;5.10;;;;;;;;;;4983330;28;20038;-83
2022/08/20 01:59:36;;;;;;;6.25;5.13;;;;;;;;;;5000980;28;20080;-84
2022/08/20 02:02:05;;;;;;;5.80;5.07;;;;;;;;;;4998193;28;20026;-82
2022/08/20 02:04:31;;;;;;;10.15;6.05;;;;;;;;;;4998707;28;20033;-85
2022/08/20 02:07:00;;;;;;;6.18;5.57;;;;;;;;;;4981368;28;20030;-82
2022/08/20 02:09:36;;;;;;;8.35;5.57;;;;;;;;;;4995284;28;20470;-83
2022/08/20 02:12:03;;;;;;;10.05;6.00;;;;;;;;;;5002818;28;20068;-83
2022/08/20 02:14:29;;;;;;;8.95;5.75;;;;;;;;;;5000628;28;20475;-86
2022/08/20 02:16:57;;;;;;;7.93;5.70;;;;;;;;;;5003716;28;20022;-83
2022/08/20 02:19:38;;;;;;;7.88;5.90;;;;;;;;;;5002559;28;20046;-83
2022/08/20 02:22:15;;;;;;;7.85;5.53;;;;;;;;;;5003080;28;20033;-83
2022/08/20 02:24:40;;;;;;;8.25;4.95;;;;;;;;;;4994780;28;20054;-85
2022/08/20 02:27:06;;;;;;;7.43;5.50;;;;;;;;;;5005363;28;20423;-85
2022/08/20 02:29:31;;;;;;;10.57;6.18;;;;;;;;;;4999829;28;20034;-84
2022/08/20 02:31:57;;;;;;;6.28;4.97;;;;;;;;;;5002981;28;20026;-86
2022/08/20 02:34:23;;;;;;;7.63;5.85;;;;;;;;;;4997002;28;20060;-84
2022/08/20 02:36:48;;;;;;;6.22;5.63;;;;;;;;;;4993097;28;20034;-85
2022/08/20 02:39:14;;;;;;;8.60;6.03;;;;;;;;;;4998393;28;20034;-84
2022/08/20 02:41:40;;;;;;;8.48;5.78;;;;;;;;;;4994631;28;20034;-86
2022/08/20 02:44:06;;;;;;;8.18;5.70;;;;;;;;;;5006937;28;20387;-86
2022/08/20 02:46:32;;;;;;;9.57;5.63;;;;;;;;;;4982529;28;20018;-86
2022/08/20 02:48:58;;;;;;;8.55;5.40;;;;;;;;;;4997299;28;20072;-85
2022/08/20 02:51:24;;;;;;;8.20;6.13;;;;;;;;;;4997126;28;20073;-83
2022/08/20 02:53:50;;;;;;;7.50;5.97;;;;;;;;;;4993121;28;20088;-84
2022/08/20 02:56:15;;;;;;;8.93;6.10;;;;;;;;;;4990442;28;20471;-84
2022/08/20 02:58:41;;;;;;;7.07;6.20;;;;;;;;;;4992592;28;20038;-84
2022/08/20 03:01:11;;;;;;;8.35;5.82;;;;;;;;;;4999804;28;20097;-84
2022/08/20 03:03:38;;;;;;;7.20;6.20;;;;;;;;;;5001808;28;20117;-83
2022/08/20 03:06:05;;;;;;;8.52;6.03;;;;;;;;;;4996961;28;20077;-82
2022/08/20 03:08:30;;;;;;;7.57;5.82;;;;;;;;;;5008281;28;20052;-83
2022/08/20 03:10:56;;;;;;;10.00;6.20;;;;;;;;;;5000503;28;20054;-82
2022/08/20 03:13:22;;;;;;;7.63;6.32;;;;;;;;;;5000835;28;20026;-83
2022/08/20 03:15:52;;;;;;;8.95;6.25;;;;;;;;;;4998606;28;20046;-84
2022/08/20 03:18:19;;;;;;;8.55;6.07;;;;;;;;;;4999426;28;20051;-83
2022/08/20 03:20:45;;;;;;;8.23;6.10;;;;;;;;;;4992456;28;20038;-84
2022/08/20 03:23:11;;;;;;;7.25;5.90;;;;;;;;;;4996982;28;20081;-84
2022/08/20 03:25:37;;;;;;;8.80;5.60;;;;;;;;;;4996301;28;20026;-85
2022/08/20 03:28:03;;;;;;;9.32;6.00;;;;;;;;;;4986336;28;20021;-84
2022/08/20 03:30:30;;;;;;;7.18;5.82;;;;;;;;;;5002735;28;20034;-82
2022/08/20 03:32:56;;;;;;;6.13;5.53;;;;;;;;;;4982981;28;20541;-84
2022/08/20 03:35:26;;;;;;;6.82;5.60;;;;;;;;;;4994974;28;20038;-83
2022/08/20 03:37:52;;;;;;;8.35;5.68;;;;;;;;;;5000183;28;20032;-83
2022/08/20 03:40:25;;;;;;;8.70;5.65;;;;;;;;;;4997801;28;20030;-82
2022/08/20 03:42:51;;;;;;;8.77;6.03;;;;;;;;;;4999154;28;20181;-83
2022/08/20 03:45:18;;;;;;;9.02;5.80;;;;;;;;;;4996170;28;20525;-83
2022/08/20 03:47:47;;;;;;;8.38;5.72;;;;;;;;;;5000043;28;20030;-84
2022/08/20 03:50:13;;;;;;;13.27;7.00;;;;;;;;;;4980984;28;20022;-85
2022/08/20 03:52:39;;;;;;;7.97;6.28;;;;;;;;;;5009014;28;20030;-84
2022/08/20 03:55:07;;;;;;;6.68;5.70;;;;;;;;;;4994601;28;20026;-82
2022/08/20 03:57:34;;;;;;;9.57;6.45;;;;;;;;;;4998485;28;20042;-82
2022/08/20 04:00:00;;;;;;;7.63;5.70;;;;;;;;;;5000689;28;20471;-82
2022/08/20 04:02:27;;;;;;;6.53;5.93;;;;;;;;;;4997367;28;20022;-84
2022/08/20 04:04:53;;;;;;;9.50;6.47;;;;;;;;;;5002977;28;20030;-86
2022/08/20 04:07:26;;;;;;;8.10;5.45;;;;;;;;;;4988515;28;20025;-85
2022/08/20 04:09:55;;;;;;;7.07;5.70;;;;;;;;;;4997353;28;20056;-83
2022/08/20 04:12:22;;;;;;;7.28;5.85;;;;;;;;;;4996847;28;20030;-83
2022/08/20 04:14:48;;;;;;;11.23;6.30;;;;;;;;;;5007516;28;20042;-83
2022/08/20 04:17:17;;;;;;;5.97;5.38;;;;;;;;;;5002742;28;20022;-82
2022/08/20 04:19:46;;;;;;;10.03;6.27;;;;;;;;;;4997505;28;20054;-83
2022/08/20 04:22:12;;;;;;;8.27;5.93;;;;;;;;;;4994325;28;20112;-84
2022/08/20 04:24:39;;;;;;;6.72;6.03;;;;;;;;;;4991450;28;20069;-83
2022/08/20 04:27:07;;;;;;;7.10;5.80;;;;;;;;;;5000956;28;20029;-84
2022/08/20 04:29:33;;;;;;;13.15;6.53;;;;;;;;;;4987992;28;20442;-83
2022/08/20 04:32:01;;;;;;;9.68;6.45;;;;;;;;;;4984128;28;20038;-84
2022/08/20 04:34:28;;;;;;;8.60;5.82;;;;;;;;;;4996019;28;20026;-84
2022/08/20 04:36:53;;;;;;;8.25;6.13;;;;;;;;;;4995811;28;20026;-83
2022/08/20 04:39:19;;;;;;;9.60;7.82;;;;;;;;;;5000523;28;20497;-85
2022/08/20 04:41:44;;;;;;;9.38;6.38;;;;;;;;;;4994168;28;20030;-84
2022/08/20 04:44:10;;;;;;;7.20;6.22;;;;;;;;;;4997334;28;20022;-83
2022/08/20 04:46:37;;;;;;;6.70;5.72;;;;;;;;;;4996230;28;20032;-85
2022/08/20 04:49:03;;;;;;;8.25;6.65;;;;;;;;;;4999252;28;20479;-85
2022/08/20 04:51:30;;;;;;;10.43;7.93;;;;;;;;;;4996719;28;20026;-84
2022/08/20 04:53:56;;;;;;;8.50;6.47;;;;;;;;;;5000108;28;20030;-84
2022/08/20 04:56:25;;;;;;;13.10;10.07;;;;;;;;;;4996340;28;20038;-84
2022/08/20 04:58:53;;;;;;;12.73;9.05;;;;;;;;;;4996799;28;20109;-84
2022/08/20 05:01:19;;;;;;;9.48;7.30;;;;;;;;;;4992069;28;20022;-84
2022/08/20 05:03:46;;;;;;;9.90;6.55;;;;;;;;;;4995822;28;20029;-87
2022/08/20 05:06:12;;;;;;;8.43;6.93;;;;;;;;;;4994695;28;20023;-83
2022/08/20 05:08:38;;;;;;;10.70;7.82;;;;;;;;;;5001566;28;20367;-83
2022/08/20 05:11:05;;;;;;;13.07;9.70;;;;;;;;;;4994080;28;20104;-83
2022/08/20 05:13:30;;;;;;;11.45;7.05;;;;;;;;;;4980138;28;20109;-84
2022/08/20 05:15:58;;;;;;;21.23;18.08;;;;;;;;;;5001647;28;20120;-83
2022/08/20 05:18:26;;;;;;;35.38;31.63;;;;;;;;;;4983777;28;20057;-85
2022/08/20 05:20:52;;;;;;;9.88;7.75;;;;;;;;;;4995469;28;22060;-82
2022/08/20 05:23:19;;;;;;;10.30;7.10;;;;;;;;;;4997744;28;20029;-85
2022/08/20 05:25:50;;;;;;;8.13;6.78;;;;;;;;;;4995264;28;20040;-85
2022/08/20 05:28:20;;;;;;;10.85;7.38;;;;;;;;;;4997115;28;20100;-84
2022/08/20 05:30:46;;;;;;;11.70;8.10;;;;;;;;;;4994089;28;20049;-85
2022/08/20 05:33:15;;;;;;;10.05;6.82;;;;;;;;;;4996764;28;20446;-84
2022/08/20 05:35:41;;;;;;;9.43;7.22;;;;;;;;;;4999699;28;20031;-84
2022/08/20 05:38:11;;;;;;;12.23;7.20;;;;;;;;;;5005543;28;20343;-85
2022/08/20 05:40:39;;;;;;;9.77;6.70;;;;;;;;;;4994157;28;20080;-84
2022/08/20 05:43:05;;;;;;;8.48;6.85;;;;;;;;;;4995530;28;20116;-85
2022/08/20 05:45:33;;;;;;;7.97;6.78;;;;;;;;;;4994422;28;20113;-84
2022/08/20 05:48:07;;;;;;;52.63;43.70;;;;;;;;;;5000581;28;20041;-84
2022/08/20 05:50:33;;;;;;;26.88;22.48;;;;;;;;;;4995859;28;20041;-83
2022/08/20 05:53:00;;;;;;;12.45;9.30;;;;;;;;;;4994079;28;20033;-83
2022/08/20 05:55:26;;;;;;;9.70;7.22;;;;;;;;;;5001545;28;20022;-84
2022/08/20 05:58:00;;;;;;;8.82;7.30;;;;;;;;;;4998934;28;20026;-83
2022/08/20 06:00:27;;;;;;;9.13;7.35;;;;;;;;;;4995995;28;20186;-82
2022/08/20 06:05:36;;;;;;;8.75;7.43;;;;;;;;;;4998931;28;20041;-82
2022/08/20 06:08:07;;;;;;;11.05;9.15;;;;;;;;;;4996490;28;20029;-82
2022/08/20 06:10:33;;;;;;;29.02;21.92;;;;;;;;;;4998241;28;20037;-83
2022/08/20 06:12:58;;;;;;;15.02;9.00;;;;;;;;;;4994286;28;20493;-83
2022/08/20 06:15:24;;;;;;;9.52;8.23;;;;;;;;;;4991899;28;20034;-85
2022/08/20 06:17:50;;;;;;;12.27;9.13;;;;;;;;;;4997587;28;20041;-84
2022/08/20 06:20:15;;;;;;;10.02;7.18;;;;;;;;;;4999990;28;20034;-85
2022/08/20 06:22:40;;;;;;;11.10;8.00;;;;;;;;;;4993938;28;20097;-85
2022/08/20 06:25:07;;;;;;;9.63;7.40;;;;;;;;;;4982982;28;20037;-84
2022/08/20 06:27:36;;;;;;;11.15;8.10;;;;;;;;;;5002306;28;20026;-85
2022/08/20 06:30:01;;;;;;;12.77;6.90;;;;;;;;;;4996132;28;20044;-86
2022/08/20 06:32:27;;;;;;;9.98;7.35;;;;;;;;;;4994985;28;20263;-84
2022/08/20 06:34:52;;;;;;;10.73;6.53;;;;;;;;;;4996736;28;20034;-84
2022/08/20 06:37:22;;;;;;;8.93;7.88;;;;;;;;;;4997824;28;20037;-83
2022/08/20 06:39:49;;;;;;;9.95;7.47;;;;;;;;;;4998498;28;20026;-85
2022/08/20 06:42:15;;;;;;;19.13;15.65;;;;;;;;;;4993807;28;20469;-86
2022/08/20 06:44:41;;;;;;;84.93;70.03;;;;;;;;;;5000009;28;20105;-84
2022/08/20 06:47:06;;;;;;;12.10;8.73;;;;;;;;;;4996863;28;20028;-84
2022/08/20 06:49:35;;;;;;;9.30;7.40;;;;;;;;;;5000650;28;20113;-86
2022/08/20 06:52:03;;;;;;;9.95;6.80;;;;;;;;;;5005489;28;20564;-84
2022/08/20 06:54:29;;;;;;;13.35;7.75;;;;;;;;;;5000480;28;20034;-85
2022/08/20 06:56:54;;;;;;;13.48;8.02;;;;;;;;;;5003331;28;20446;-85
2022/08/20 06:59:20;;;;;;;9.68;8.13;;;;;;;;;;4992612;28;20521;-84
2022/08/20 07:01:45;;;;;;;11.57;8.10;;;;;;;;;;4999782;28;20038;-85
2022/08/20 07:04:10;;;;;;;8.52;7.32;;;;;;;;;;5001576;28;20026;-81
2022/08/20 07:06:36;;;;;;;8.88;7.95;;;;;;;;;;4998636;28;20030;-84
2022/08/20 07:09:01;;;;;;;9.32;7.53;;;;;;;;;;4980453;28;20077;-82
2022/08/20 07:11:27;;;;;;;9.65;8.43;;;;;;;;;;4989992;28;20022;-83
2022/08/20 07:13:52;;;;;;;9.68;7.78;;;;;;;;;;4999220;28;20026;-82
2022/08/20 07:16:18;;;;;;;9.65;7.85;;;;;;;;;;4995967;28;20037;-83
2022/08/20 07:18:43;;;;;;;14.20;11.20;;;;;;;;;;5002279;28;20049;-83
2022/08/20 07:21:10;;;;;;;15.68;13.57;;;;;;;;;;4982662;28;20419;-83
2022/08/20 07:23:36;;;;;;;21.65;19.42;;;;;;;;;;4989113;28;20050;-81
2022/08/20 07:26:02;;;;;;;12.15;8.60;;;;;;;;;;5001853;28;20064;-84
2022/08/20 07:28:28;;;;;;;14.68;9.48;;;;;;;;;;4997308;28;20060;-84
2022/08/20 07:33:39;;;;;;;12.07;7.60;;;;;;;;;;5001098;28;20076;-83
2022/08/20 07:36:05;;;;;;;23.75;18.90;;;;;;;;;;4996014;28;20026;-83
2022/08/20 07:38:32;;;;;;;12.27;10.45;;;;;;;;;;4997330;28;20026;-84
2022/08/20 07:41:03;;;;;;;19.45;16.20;;;;;;;;;;4996235;28;20088;-82
2022/08/20 07:43:30;;;;;;;8.63;7.82;;;;;;;;;;5006810;28;20539;-82
2022/08/20 07:45:59;;;;;;;11.07;8.48;;;;;;;;;;4981147;28;20017;-81
2022/08/20 07:48:27;;;;;;;;;;;;;;;;;;5001509;28;20026;-84
2022/08/20 07:50:54;;;;;;;12.35;7.72;;;;;;;;;;5004157;28;20282;-83
2022/08/20 07:53:20;;;;;;;11.57;8.63;;;;;;;;;;4998489;28;20490;-83
2022/08/20 07:55:46;;;;;;;11.38;8.02;;;;;;;;;;4993952;28;20038;-83
2022/08/20 07:58:14;;;;;;;8.90;8.00;;;;;;;;;;4996796;28;20143;-84
2022/08/20 08:00:40;;;;;;;9.32;7.90;;;;;;;;;;4997271;28;20037;-84
2022/08/20 08:03:06;;;;;;;10.18;8.45;;;;;;;;;;4994554;28;20056;-83
2022/08/20 08:05:34;;;;;;;8.98;7.95;;;;;;;;;;5002720;28;20034;-83
2022/08/20 08:08:01;;;;;;;12.43;8.35;;;;;;;;;;5002859;28;20062;-84
2022/08/20 08:10:27;;;;;;;11.60;8.15;;;;;;;;;;5003624;28;20038;-84
2022/08/20 08:12:56;;;;;;;9.20;7.75;;;;;;;;;;5004078;28;20510;-83
2022/08/20 08:15:23;;;;;;;;;;;;;;;;;;4979038;28;20033;-81
2022/08/20 08:17:51;;;;;;;9.98;7.43;;;;;;;;;;4999379;28;20376;-83
2022/08/20 08:20:21;;;;;;;9.77;8.10;;;;;;;;;;5006279;28;20466;-83
2022/08/20 08:22:47;;;;;;;8.40;7.50;;;;;;;;;;5005207;28;20037;-83
2022/08/20 08:25:15;;;;;;;10.85;7.63;;;;;;;;;;5000071;28;20400;-82
2022/08/20 08:27:40;;;;;;;19.73;7.55;;;;;;;;;;4996147;28;20022;-83
2022/08/20 08:30:08;;;;;;;10.88;7.10;;;;;;;;;;4980774;28;20132;-83
2022/08/20 08:33:26;;;;;;;9.73;7.10;;;;;;;;;;4977025;28;20037;-83
2022/08/20 08:35:22;;;;;;;10.07;7.97;;;;;;;;;;5004543;28;20034;-86
2022/08/20 08:37:48;;;;;;;8.43;7.25;;;;;;;;;;4993930;28;20034;-85
2022/08/20 08:40:13;;;;;;;8.15;7.28;;;;;;;;;;4993715;28;20031;-84
2022/08/20 08:42:56;;;;;;;8.98;8.07;;;;;;;;;;4998579;28;20439;-84
2022/08/20 08:45:25;;;;;;;8.13;7.32;;;;;;;;;;5001756;28;20501;-86
2022/08/20 08:47:50;;;;;;;8.93;7.67;;;;;;;;;;4997728;28;20030;-84
2022/08/20 08:50:23;;;;;;;8.27;7.30;;;;;;;;;;4996007;28;20801;-84
2022/08/20 08:52:58;;;;;;;8.07;7.15;;;;;;;;;;4992244;28;20054;-83
2022/08/20 08:55:26;;;;;;;12.52;8.13;;;;;;;;;;5006839;28;20425;-86
2022/08/20 08:57:55;;;;;;;8.55;7.18;;;;;;;;;;4988468;28;20060;-83
2022/08/20 09:00:22;;;;;;;9.88;8.98;;;;;;;;;;4993385;28;20105;-83
2022/08/20 09:03:04;;;;;;;11.57;10.38;;;;;;;;;;5006009;28;20029;-83
2022/08/20 09:05:59;;;;;;;10.90;8.63;;;;;;;;;;5001365;28;20083;-82
2022/08/20 09:08:46;;;;;;;8.63;7.72;;;;;;;;;;4991700;28;20475;-83
2022/08/20 09:11:13;;;;;;;9.77;7.80;;;;;;;;;;4997300;28;20052;-83
2022/08/20 09:13:39;;;;;;;9.73;8.63;;;;;;;;;;4997553;28;20497;-83
2022/08/20 09:16:05;;;;;;;8.50;7.70;;;;;;;;;;4996343;28;20026;-83
2022/08/20 09:18:31;;;;;;;9.40;7.38;;;;;;;;;;4996055;28;20089;-84
2022/08/20 09:20:56;;;;;;;8.55;7.50;;;;;;;;;;5000120;28;20438;-84
2022/08/20 09:23:22;;;;;;;11.70;10.48;;;;;;;;;;4994953;28;20069;-84
2022/08/20 09:25:48;;;;;;;25.60;22.92;;;;;;;;;;4997109;28;20201;-84
2022/08/20 09:28:13;;;;;;;14.77;13.30;;;;;;;;;;4998648;28;20054;-84
2022/08/20 09:30:39;;;;;;;9.25;7.70;;;;;;;;;;4996045;28;20030;-85
2022/08/20 09:33:04;;;;;;;10.02;8.13;;;;;;;;;;5004568;28;20464;-83
2022/08/20 09:35:30;;;;;;;9.10;7.95;;;;;;;;;;4995921;28;20022;-83
2022/08/20 09:37:55;;;;;;;8.15;7.10;;;;;;;;;;4996251;28;20045;-83
2022/08/20 09:40:21;;;;;;;8.93;7.75;;;;;;;;;;4995258;28;20532;-84
2022/08/20 09:42:48;;;;;;;9.95;7.70;;;;;;;;;;4998636;28;20041;-84
2022/08/20 09:45:14;;;;;;;11.15;8.10;;;;;;;;;;4982311;28;20438;-82
2022/08/20 09:47:40;;;;;;;10.10;7.50;;;;;;;;;;4995474;28;20057;-83
2022/08/20 09:50:07;;;;;;;9.95;7.28;;;;;;;;;;5003300;28;20103;-84
2022/08/20 09:52:38;;;;;;;8.27;7.00;;;;;;;;;;5002150;28;20557;-83
2022/08/20 09:55:21;;;;;;;8.80;7.30;;;;;;;;;;4993475;28;20530;-83
2022/08/20 09:57:48;;;;;;;52.20;46.65;;;;;;;;;;4989988;28;21920;-84
2022/08/20 10:00:14;;;;;;;11.82;10.23;;;;;;;;;;4993834;28;20038;-84
2022/08/20 10:02:40;;;;;;;8.88;8.07;;;;;;;;;;4992033;28;20027;-82
2022/08/20 10:05:07;;;;;;;9.63;7.18;;;;;;;;;;4997745;28;20365;-82
2022/08/20 10:07:33;;;;;;;9.40;8.07;;;;;;;;;;4999882;28;20046;-83
2022/08/20 10:09:59;;;;;;;8.88;7.30;;;;;;;;;;4992710;28;20068;-83
2022/08/20 10:12:25;;;;;;;10.07;7.57;;;;;;;;;;4998713;28;20031;-82
2022/08/20 10:14:51;;;;;;;9.98;7.32;;;;;;;;;;4996136;28;20033;-84
2022/08/20 10:17:16;;;;;;;12.95;7.55;;;;;;;;;;4979721;28;20033;-83
2022/08/20 10:19:41;;;;;;;8.88;7.80;;;;;;;;;;4979521;28;20033;-82
2022/08/20 10:22:07;;;;;;;7.70;6.53;;;;;;;;;;5003749;28;20029;-81
2022/08/20 10:24:33;;;;;;;18.92;16.58;;;;;;;;;;4980118;28;20034;-82
2022/08/20 10:27:00;;;;;;;11.10;9.88;;;;;;;;;;4995180;28;20026;-81
2022/08/20 10:29:27;;;;;;;8.68;7.10;;;;;;;;;;4993047;28;20056;-82
2022/08/20 10:31:53;;;;;;;7.28;6.63;;;;;;;;;;4995560;28;20486;-81
2022/08/20 10:34:19;;;;;;;8.32;6.45;;;;;;;;;;4990977;28;20058;-81
2022/08/20 10:36:45;;;;;;;7.25;6.55;;;;;;;;;;4992959;28;20112;-82
2022/08/20 10:39:11;;;;;;;8.45;7.03;;;;;;;;;;5002305;28;20139;-82
2022/08/20 10:41:36;;;;;;;8.02;6.68;;;;;;;;;;4994330;28;20030;-81
2022/08/20 10:44:03;;;;;;;13.45;9.05;;;;;;;;;;4992917;28;20391;-82
2022/08/20 10:46:29;;;;;;;33.97;23.52;;;;;;;;;;4996707;28;20075;-83
2022/08/20 10:48:54;;;;;;;22.73;20.50;;;;;;;;;;5000884;28;20018;-82
2022/08/20 10:51:19;;;;;;;9.13;7.35;;;;;;;;;;4993915;28;20121;-83
2022/08/20 10:53:45;;;;;;;8.75;7.85;;;;;;;;;;4996779;28;20084;-82
2022/08/20 10:56:11;;;;;;;8.15;7.32;;;;;;;;;;4993933;28;20025;-82
2022/08/20 10:58:36;;;;;;;19.65;16.40;;;;;;;;;;4990392;28;20046;-82
2022/08/20 11:01:01;;;;;;;9.82;8.80;;;;;;;;;;4997074;28;20040;-82
2022/08/20 11:03:27;;;;;;;10.43;9.43;;;;;;;;;;4995327;28;20486;-82
2022/08/20 11:05:52;;;;;;;8.52;7.63;;;;;;;;;;5002971;28;20081;-82
2022/08/20 11:08:18;;;;;;;11.50;6.93;;;;;;;;;;4995335;28;21319;-81
2022/08/20 11:10:43;;;;;;;7.97;7.18;;;;;;;;;;4996229;28;20524;-82
2022/08/20 11:13:11;;;;;;;9.35;7.43;;;;;;;;;;4989894;28;20065;-82
2022/08/20 11:15:39;;;;;;;7.85;7.13;;;;;;;;;;4994845;28;20034;-80
2022/08/20 11:18:05;;;;;;;8.02;7.30;;;;;;;;;;4983890;28;20054;-81
2022/08/20 11:20:31;;;;;;;20.77;17.95;;;;;;;;;;4994172;28;20070;-80
2022/08/20 11:22:57;;;;;;;43.53;39.20;;;;;;;;;;4990954;28;20039;-81
2022/08/20 11:25:23;;;;;;;8.50;7.15;;;;;;;;;;4992373;28;20022;-81
2022/08/20 11:27:50;;;;;;;11.57;6.93;;;;;;;;;;4990727;28;20038;-81
2022/08/20 11:30:30;;;;;;;8.95;7.10;;;;;;;;;;4987595;28;20371;-81
2022/08/20 11:32:57;;;;;;;9.73;7.10;;;;;;;;;;4993370;28;20057;-83
2022/08/20 11:35:24;;;;;;;8.05;6.57;;;;;;;;;;4991280;28;20585;-81
2022/08/20 11:37:51;;;;;;;11.35;7.55;;;;;;;;;;4991562;28;20089;-81
2022/08/20 11:40:17;;;;;;;7.93;7.10;;;;;;;;;;4994802;28;20034;-81
2022/08/20 11:42:42;;;;;;;8.32;7.38;;;;;;;;;;4992922;28;20041;-81
2022/08/20 11:45:08;;;;;;;7.20;6.50;;;;;;;;;;4992313;28;20023;-81
2022/08/20 11:47:35;;;;;;;10.75;7.68;;;;;;;;;;5002981;28;20478;-81
2022/08/20 11:50:09;;;;;;;9.90;7.18;;;;;;;;;;5000063;28;20026;-80
2022/08/20 11:52:34;;;;;;;9.52;7.38;;;;;;;;;;5001127;28;20041;-81
2022/08/20 11:55:00;;;;;;;9.25;7.30;;;;;;;;;;4998245;28;20034;-81
2022/08/20 11:57:29;;;;;;;7.80;7.10;;;;;;;;;;5002713;28;20592;-81
2022/08/20 11:59:56;;;;;;;8.55;7.68;;;;;;;;;;5000080;28;20030;-81
2022/08/20 12:02:22;;;;;;;8.75;7.57;;;;;;;;;;4995134;28;20091;-82
2022/08/20 12:04:48;;;;;;;7.32;6.63;;;;;;;;;;4998024;28;20034;-81
2022/08/20 12:07:17;;;;;;;8.13;7.13;;;;;;;;;;4999666;28;20168;-82
2022/08/20 12:09:44;;;;;;;13.98;7.28;;;;;;;;;;4995022;28;20045;-81
2022/08/20 12:12:10;;;;;;;11.75;7.25;;;;;;;;;;4998561;28;20043;-82
2022/08/20 12:14:36;;;;;;;11.43;8.20;;;;;;;;;;4998438;28;20026;-81
2022/08/20 12:17:28;;;;;;;12.25;8.45;;;;;;;;;;4996356;28;20033;-82
2022/08/20 12:19:56;;;;;;;23.65;11.18;;;;;;;;;;4972969;28;20047;-82
2022/08/20 12:22:22;;;;;;;32.97;12.40;;;;;;;;;;4978273;28;20035;-80
2022/08/20 12:24:47;;;;;;;21.05;12.93;;;;;;;;;;4978343;28;20042;-80
2022/08/20 12:27:20;;;;;;;17.75;12.73;;;;;;;;;;4982764;28;20023;-85
2022/08/20 12:29:47;;;;;;;23.40;14.07;;;;;;;;;;4979573;28;20035;-85
2022/08/20 12:32:13;;;;;;;24.20;14.98;;;;;;;;;;4974467;28;20044;-86
2022/08/20 12:34:40;;;;;;;23.35;15.40;;;;;;;;;;4982706;28;20030;-84
2022/08/20 12:37:15;;;;;;;30.95;15.23;;;;;;;;;;4978083;28;20117;-82
2022/08/20 12:39:43;;;;;;;32.03;16.33;;;;;;;;;;4980124;28;20058;-83
2022/08/20 12:42:09;;;;;;;26.52;15.40;;;;;;;;;;4978462;28;20040;-82
2022/08/20 12:44:35;;;;;;;40.72;18.98;;;;;;;;;;4983366;28;20074;-84
2022/08/20 12:47:12;;;;;;;40.92;19.80;;;;;;;;;;4982626;28;20424;-82
2022/08/20 12:49:38;;;;;;;32.78;21.20;;;;;;;;;;4980379;28;20031;-81
2022/08/20 12:52:04;;;;;;;26.45;19.15;;;;;;;;;;4981441;28;20501;-82
2022/08/20 12:54:30;;;;;;;26.70;20.23;;;;;;;;;;4986960;28;20034;-82
2022/08/20 12:56:55;;;;;;;31.70;21.80;;;;;;;;;;4975237;28;20030;-84
2022/08/20 12:59:23;;;;;;;31.10;22.30;;;;;;;;;;4983436;28;20081;-83
2022/08/20 13:01:49;;;;;;;31.13;22.25;;;;;;;;;;4975485;28;20030;-82
2022/08/20 13:04:14;;;;;;;35.22;23.90;;;;;;;;;;4978124;28;20033;-83
2022/08/20 13:06:39;;;;;;;39.45;29.65;;;;;;;;;;4976655;28;20106;-82
2022/08/20 13:09:05;;;;;;;33.15;26.73;;;;;;;;;;4974661;28;20038;-81
2022/08/20 13:11:30;;;;;;;25.40;19.25;;;;;;;;;;4975522;28;20523;-81
2022/08/20 13:13:55;;;;;;;21.05;13.85;;;;;;;;;;4975308;28;20029;-80
2022/08/20 13:16:21;;;;;;;14.93;12.32;;;;;;;;;;4977472;28;20042;-81
2022/08/20 13:18:46;;;;;;;17.08;14.05;;;;;;;;;;4997457;28;20057;-80
2022/08/20 13:21:12;;;;;;;17.63;15.60;;;;;;;;;;4996092;28;20117;-83
2022/08/20 13:23:37;;;;;;;20.98;15.50;;;;;;;;;;4998747;28;20041;-82
2022/08/20 13:26:04;;;;;;;16.48;14.77;;;;;;;;;;5004460;28;20027;-80
2022/08/20 13:28:29;;;;;;;18.27;15.07;;;;;;;;;;5001863;28;20102;-81
2022/08/20 13:30:55;;;;;;;18.75;15.48;;;;;;;;;;5006049;28;20033;-81
2022/08/20 13:33:20;;;;;;;20.33;15.68;;;;;;;;;;4975983;28;20390;-81
2022/08/20 13:35:46;;;;;;;15.50;13.88;;;;;;;;;;4993834;28;20030;-81
2022/08/20 13:38:12;;;;;;;16.02;13.85;;;;;;;;;;4995046;28;20037;-80
2022/08/20 13:40:37;;;;;;;17.02;15.30;;;;;;;;;;4981482;28;20033;-79
2022/08/20 13:43:03;;;;;;;15.50;13.90;;;;;;;;;;5001681;28;20069;-80
2022/08/20 13:45:28;;;;;;;16.95;14.07;;;;;;;;;;4996038;28;20109;-82
2022/08/20 13:47:54;;;;;;;19.13;15.45;;;;;;;;;;4990773;28;20031;-80
2022/08/20 13:50:22;;;;;;;22.73;16.02;;;;;;;;;;4992632;28;20030;-80
2022/08/20 13:52:48;;;;;;;22.85;16.63;;;;;;;;;;5002597;28;20030;-82
2022/08/20 13:55:20;;;;;;;21.05;16.95;;;;;;;;;;4994969;28;21423;-85
2022/08/20 13:57:46;;;;;;;23.67;15.50;;;;;;;;;;5001448;28;20121;-82
2022/08/20 14:00:16;;;;;;;15.38;13.82;;;;;;;;;;4994811;28;20076;-84
2022/08/20 14:02:43;;;;;;;19.02;13.40;;;;;;;;;;4998943;28;20034;-83
2022/08/20 14:05:10;;;;;;;20.52;16.58;;;;;;;;;;4993677;28;20030;-82
2022/08/20 14:07:36;;;;;;;19.52;15.30;;;;;;;;;;5006043;28;20029;-82
2022/08/20 14:10:12;;;;;;;18.15;15.40;;;;;;;;;;5005523;28;20038;-84
2022/08/20 14:12:38;;;;;;;19.58;15.38;;;;;;;;;;4990634;28;20034;-82
2022/08/20 14:15:04;;;;;;;19.70;16.85;;;;;;;;;;4997591;28;20108;-82
2022/08/20 14:17:32;;;;;;;20.13;16.05;;;;;;;;;;4994514;28;20057;-81
2022/08/20 14:20:07;;;;;;;21.48;16.13;;;;;;;;;;4993907;28;20049;-80
2022/08/20 14:22:32;;;;;;;20.23;15.73;;;;;;;;;;4990967;28;20041;-80
2022/08/20 14:25:02;;;;;;;20.67;16.10;;;;;;;;;;4974837;28;20117;-80
2022/08/20 14:27:29;;;;;;;18.58;16.58;;;;;;;;;;4993539;28;20022;-80
2022/08/20 14:29:55;;;;;;;21.67;16.42;;;;;;;;;;4995642;28;20105;-80
2022/08/20 14:32:20;;;;;;;21.15;16.90;;;;;;;;;;4990940;28;20117;-78
2022/08/20 14:34:46;;;;;;;19.38;15.75;;;;;;;;;;4977295;28;20137;-81
2022/08/20 14:37:18;;;;;;;19.38;16.15;;;;;;;;;;5002538;28;20484;-82
2022/08/20 14:39:47;;;;;;;18.92;15.07;;;;;;;;;;4992595;28;20475;-80
2022/08/20 14:42:14;;;;;;;21.17;16.73;;;;;;;;;;4986974;28;20043;-80